sensor_id;sensor_type;location;lat;lon;timestamp;temperature;humidity
8463;DHT22;4268;52.506;13.462;2023-12-22T00:01:08;5.50;99.90
8463;DHT22;4268;52.506;13.462;2023-12-22T00:03:34;5.50;99.90
8463;DHT22;4268;52.506;13.462;2023-12-22T00:05:59;5.50;99.90
8463;DHT22;4268;52.506;13.462;2023-12-22T00:08:25;5.50;99.90
8463;DHT22;4268;52.506;13.462;2023-12-22T00:10:51;5.40;99.90
8463;DHT22;4268;52.506;13.462;2023-12-22T00:13:16;5.40;99.90
8463;DHT22;4268;52.506;13.462;2023-12-22T00:15:42;5.40;99.90
8463;DHT22;4268;52.506;13.462;2023-12-22T00:18:10;5.30;99.90
8463;DHT22;4268;52.506;13.462;2023-12-22T00:20:36;5.30;99.90
8463;DHT22;4268;52.506;13.462;2023-12-22T00:23:01;5.30;99.90
8463;DHT22;4268;52.506;13.462;2023-12-22T00:25:27;5.20;99.90
8463;DHT22;4268;52.506;13.462;2023-12-22T00:27:52;5.20;99.90
8463;DHT22;4268;52.506;13.462;2023-12-22T00:30:18;5.20;99.90
8463;DHT22;4268;52.506;13.462;2023-12-22T00:32:43;5.20;99.90
8463;DHT22;4268;52.506;13.462;2023-12-22T00:35:09;5.20;99.90
8463;DHT22;4268;52.506;13.462;2023-12-22T00:37:35;5.20;99.90
8463;DHT22;4268;52.506;13.462;2023-12-22T00:40:00;5.20;99.90
8463;DHT22;4268;52.506;13.462;2023-12-22T00:42:26;5.30;99.90
8463;DHT22;4268;52.506;13.462;2023-12-22T00:44:52;5.30;99.90
8463;DHT22;4268;52.506;13.462;2023-12-22T00:47:17;5.40;99.90
8463;DHT22;4268;52.506;13.462;2023-12-22T00:49:43;5.40;99.90
8463;DHT22;4268;52.506;13.462;2023-12-22T00:52:09;5.50;99.90
8463;DHT22;4268;52.506;13.462;2023-12-22T00:54:34;5.50;99.90
8463;DHT22;4268;52.506;13.462;2023-12-22T00:57:00;5.50;99.90
8463;DHT22;4268;52.506;13.462;2023-12-22T00:59:25;5.50;99.90
8463;DHT22;4268;52.506;13.462;2023-12-22T01:01:51;5.50;99.90
8463;DHT22;4268;52.506;13.462;2023-12-22T01:04:16;5.50;99.90
8463;DHT22;4268;52.506;13.462;2023-12-22T01:06:42;5.40;99.90
8463;DHT22;4268;52.506;13.462;2023-12-22T01:09:07;5.40;99.90
8463;DHT22;4268;52.506;13.462;2023-12-22T01:11:33;5.40;99.90
8463;DHT22;4268;52.506;13.462;2023-12-22T01:13:59;5.40;99.90
8463;DHT22;4268;52.506;13.462;2023-12-22T01:16:24;5.30;99.90
8463;DHT22;4268;52.506;13.462;2023-12-22T01:18:50;5.30;99.90
8463;DHT22;4268;52.506;13.462;2023-12-22T01:21:16;5.30;99.90
8463;DHT22;4268;52.506;13.462;2023-12-22T01:23:42;5.30;99.90
8463;DHT22;4268;52.506;13.462;2023-12-22T01:26:08;5.40;99.90
8463;DHT22;4268;52.506;13.462;2023-12-22T01:28:34;5.40;99.90
8463;DHT22;4268;52.506;13.462;2023-12-22T01:31:00;5.30;99.90
8463;DHT22;4268;52.506;13.462;2023-12-22T01:33:26;5.30;99.90
8463;DHT22;4268;52.506;13.462;2023-12-22T01:35:52;5.30;99.90
8463;DHT22;4268;52.506;13.462;2023-12-22T01:38:17;5.30;99.90
8463;DHT22;4268;52.506;13.462;2023-12-22T01:40:43;5.30;99.90
8463;DHT22;4268;52.506;13.462;2023-12-22T01:43:09;5.30;99.90
8463;DHT22;4268;52.506;13.462;2023-12-22T01:45:34;5.30;99.90
8463;DHT22;4268;52.506;13.462;2023-12-22T01:48:01;5.30;99.90
8463;DHT22;4268;52.506;13.462;2023-12-22T01:50:27;5.20;99.90
8463;DHT22;4268;52.506;13.462;2023-12-22T01:52:53;5.20;99.90
8463;DHT22;4268;52.506;13.462;2023-12-22T01:55:18;5.10;99.90
8463;DHT22;4268;52.506;13.462;2023-12-22T01:57:44;5.10;99.90
8463;DHT22;4268;52.506;13.462;2023-12-22T02:00:12;5.10;99.90
8463;DHT22;4268;52.506;13.462;2023-12-22T02:02:38;5.20;99.90
8463;DHT22;4268;52.506;13.462;2023-12-22T02:05:05;5.10;99.90
8463;DHT22;4268;52.506;13.462;2023-12-22T02:07:31;5.20;99.90
8463;DHT22;4268;52.506;13.462;2023-12-22T02:09:57;5.10;99.90
8463;DHT22;4268;52.506;13.462;2023-12-22T02:12:22;5.10;99.90
8463;DHT22;4268;52.506;13.462;2023-12-22T02:14:48;5.10;99.90
8463;DHT22;4268;52.506;13.462;2023-12-22T02:17:31;5.10;99.90
8463;DHT22;4268;52.506;13.462;2023-12-22T02:19:58;5.00;99.90
8463;DHT22;4268;52.506;13.462;2023-12-22T02:22:24;5.10;99.90
8463;DHT22;4268;52.506;13.462;2023-12-22T02:24:49;5.10;99.90
8463;DHT22;4268;52.506;13.462;2023-12-22T02:30:09;5.00;99.90
8463;DHT22;4268;52.506;13.462;2023-12-22T02:32:38;5.00;99.90
8463;DHT22;4268;52.506;13.462;2023-12-22T02:35:08;4.90;99.90
8463;DHT22;4268;52.506;13.462;2023-12-22T02:37:36;4.90;99.90
8463;DHT22;4268;52.506;13.462;2023-12-22T02:40:02;4.80;99.90
8463;DHT22;4268;52.506;13.462;2023-12-22T02:42:29;4.80;99.90
8463;DHT22;4268;52.506;13.462;2023-12-22T02:44:59;4.90;99.90
8463;DHT22;4268;52.506;13.462;2023-12-22T02:47:25;4.90;99.90
8463;DHT22;4268;52.506;13.462;2023-12-22T02:49:53;4.90;99.90
8463;DHT22;4268;52.506;13.462;2023-12-22T02:52:18;4.90;99.90
8463;DHT22;4268;52.506;13.462;2023-12-22T02:54:44;4.90;99.90
8463;DHT22;4268;52.506;13.462;2023-12-22T02:57:09;4.90;99.90
8463;DHT22;4268;52.506;13.462;2023-12-22T02:59:36;4.80;99.90
8463;DHT22;4268;52.506;13.462;2023-12-22T03:02:02;4.80;99.90
8463;DHT22;4268;52.506;13.462;2023-12-22T03:04:28;4.80;99.90
8463;DHT22;4268;52.506;13.462;2023-12-22T03:06:53;4.70;99.90
8463;DHT22;4268;52.506;13.462;2023-12-22T03:09:19;4.80;99.90
8463;DHT22;4268;52.506;13.462;2023-12-22T03:11:44;4.70;99.90
8463;DHT22;4268;52.506;13.462;2023-12-22T03:14:10;4.60;99.90
8463;DHT22;4268;52.506;13.462;2023-12-22T03:16:36;4.60;99.90
8463;DHT22;4268;52.506;13.462;2023-12-22T03:19:01;4.60;99.90
8463;DHT22;4268;52.506;13.462;2023-12-22T03:21:27;4.60;99.90
8463;DHT22;4268;52.506;13.462;2023-12-22T03:23:52;4.60;99.90
8463;DHT22;4268;52.506;13.462;2023-12-22T03:26:18;4.60;99.90
8463;DHT22;4268;52.506;13.462;2023-12-22T03:28:43;4.60;99.90
8463;DHT22;4268;52.506;13.462;2023-12-22T03:31:09;4.60;99.90
8463;DHT22;4268;52.506;13.462;2023-12-22T03:33:34;4.60;99.90
8463;DHT22;4268;52.506;13.462;2023-12-22T03:36:01;4.60;99.90
8463;DHT22;4268;52.506;13.462;2023-12-22T03:38:26;4.60;99.90
8463;DHT22;4268;52.506;13.462;2023-12-22T03:40:52;4.60;99.90
8463;DHT22;4268;52.506;13.462;2023-12-22T03:43:17;4.60;99.90
8463;DHT22;4268;52.506;13.462;2023-12-22T03:45:43;4.50;99.90
8463;DHT22;4268;52.506;13.462;2023-12-22T03:48:08;4.60;99.90
8463;DHT22;4268;52.506;13.462;2023-12-22T03:50:34;4.60;99.90
8463;DHT22;4268;52.506;13.462;2023-12-22T03:53:00;4.60;99.90
8463;DHT22;4268;52.506;13.462;2023-12-22T03:55:25;4.50;99.90
8463;DHT22;4268;52.506;13.462;2023-12-22T03:57:51;4.50;99.90
8463;DHT22;4268;52.506;13.462;2023-12-22T04:00:16;4.50;99.90
8463;DHT22;4268;52.506;13.462;2023-12-22T04:02:42;4.60;99.90
8463;DHT22;4268;52.506;13.462;2023-12-22T04:05:07;4.60;99.90
8463;DHT22;4268;52.506;13.462;2023-12-22T04:07:33;4.70;99.90
8463;DHT22;4268;52.506;13.462;2023-12-22T04:09:59;4.70;99.90
8463;DHT22;4268;52.506;13.462;2023-12-22T04:12:24;4.70;99.90
8463;DHT22;4268;52.506;13.462;2023-12-22T04:14:50;4.70;99.90
8463;DHT22;4268;52.506;13.462;2023-12-22T04:17:15;4.70;99.90
8463;DHT22;4268;52.506;13.462;2023-12-22T04:19:41;4.80;99.90
8463;DHT22;4268;52.506;13.462;2023-12-22T04:22:06;4.80;99.90
8463;DHT22;4268;52.506;13.462;2023-12-22T04:24:32;4.70;99.90
8463;DHT22;4268;52.506;13.462;2023-12-22T04:26:57;4.80;99.90
8463;DHT22;4268;52.506;13.462;2023-12-22T04:29:23;4.80;99.90
8463;DHT22;4268;52.506;13.462;2023-12-22T04:31:48;4.70;99.90
8463;DHT22;4268;52.506;13.462;2023-12-22T04:34:14;4.70;99.90
8463;DHT22;4268;52.506;13.462;2023-12-22T04:36:41;4.70;99.90
8463;DHT22;4268;52.506;13.462;2023-12-22T04:39:06;4.60;99.90
8463;DHT22;4268;52.506;13.462;2023-12-22T04:41:32;4.60;99.90
8463;DHT22;4268;52.506;13.462;2023-12-22T04:43:58;4.60;99.90
8463;DHT22;4268;52.506;13.462;2023-12-22T04:46:23;4.60;99.90
8463;DHT22;4268;52.506;13.462;2023-12-22T04:48:49;4.60;99.90
8463;DHT22;4268;52.506;13.462;2023-12-22T04:51:14;4.50;99.90
8463;DHT22;4268;52.506;13.462;2023-12-22T04:53:40;4.60;99.90
8463;DHT22;4268;52.506;13.462;2023-12-22T04:56:05;4.50;99.90
8463;DHT22;4268;52.506;13.462;2023-12-22T04:58:31;4.60;99.90
8463;DHT22;4268;52.506;13.462;2023-12-22T05:00:56;4.60;99.90
8463;DHT22;4268;52.506;13.462;2023-12-22T05:03:22;4.60;99.90
8463;DHT22;4268;52.506;13.462;2023-12-22T05:05:48;4.60;99.90
8463;DHT22;4268;52.506;13.462;2023-12-22T05:08:13;4.60;99.90
8463;DHT22;4268;52.506;13.462;2023-12-22T05:10:39;4.60;99.90
8463;DHT22;4268;52.506;13.462;2023-12-22T05:13:04;4.60;99.90
8463;DHT22;4268;52.506;13.462;2023-12-22T05:15:29;4.50;99.90
8463;DHT22;4268;52.506;13.462;2023-12-22T05:17:55;4.50;99.90
8463;DHT22;4268;52.506;13.462;2023-12-22T05:20:21;4.40;99.90
8463;DHT22;4268;52.506;13.462;2023-12-22T05:22:46;4.30;99.90
8463;DHT22;4268;52.506;13.462;2023-12-22T05:25:13;4.20;99.90
8463;DHT22;4268;52.506;13.462;2023-12-22T05:27:39;4.20;99.90
8463;DHT22;4268;52.506;13.462;2023-12-22T05:30:07;4.10;99.90
8463;DHT22;4268;52.506;13.462;2023-12-22T05:32:33;4.10;99.90
8463;DHT22;4268;52.506;13.462;2023-12-22T05:34:58;4.00;99.90
8463;DHT22;4268;52.506;13.462;2023-12-22T05:37:23;4.00;99.90
8463;DHT22;4268;52.506;13.462;2023-12-22T05:39:49;4.00;99.90
8463;DHT22;4268;52.506;13.462;2023-12-22T05:42:14;3.90;99.90
8463;DHT22;4268;52.506;13.462;2023-12-22T05:44:40;3.70;99.90
8463;DHT22;4268;52.506;13.462;2023-12-22T05:47:05;3.90;99.90
8463;DHT22;4268;52.506;13.462;2023-12-22T05:49:31;3.90;99.90
8463;DHT22;4268;52.506;13.462;2023-12-22T05:51:56;3.90;99.90
8463;DHT22;4268;52.506;13.462;2023-12-22T05:54:22;3.90;99.90
8463;DHT22;4268;52.506;13.462;2023-12-22T05:56:48;3.90;99.90
8463;DHT22;4268;52.506;13.462;2023-12-22T05:59:16;3.90;99.90
8463;DHT22;4268;52.506;13.462;2023-12-22T06:01:41;4.70;99.90
8463;DHT22;4268;52.506;13.462;2023-12-22T06:04:07;3.90;99.90
8463;DHT22;4268;52.506;13.462;2023-12-22T06:06:32;3.90;99.90
8463;DHT22;4268;52.506;13.462;2023-12-22T06:08:58;3.90;99.90
8463;DHT22;4268;52.506;13.462;2023-12-22T06:11:24;3.90;99.90
8463;DHT22;4268;52.506;13.462;2023-12-22T06:13:49;3.90;99.90
8463;DHT22;4268;52.506;13.462;2023-12-22T06:16:15;3.90;99.90
8463;DHT22;4268;52.506;13.462;2023-12-22T06:18:43;3.90;99.90
8463;DHT22;4268;52.506;13.462;2023-12-22T06:21:09;4.00;99.90
8463;DHT22;4268;52.506;13.462;2023-12-22T06:23:35;4.00;99.90
8463;DHT22;4268;52.506;13.462;2023-12-22T06:26:02;3.90;99.90
8463;DHT22;4268;52.506;13.462;2023-12-22T06:28:32;3.90;99.90
8463;DHT22;4268;52.506;13.462;2023-12-22T06:30:58;3.80;99.90
8463;DHT22;4268;52.506;13.462;2023-12-22T06:33:23;3.90;99.90
8463;DHT22;4268;52.506;13.462;2023-12-22T06:35:49;4.10;99.90
8463;DHT22;4268;52.506;13.462;2023-12-22T06:38:19;3.80;99.90
8463;DHT22;4268;52.506;13.462;2023-12-22T06:40:44;3.90;99.90
8463;DHT22;4268;52.506;13.462;2023-12-22T06:43:11;4.00;99.90
8463;DHT22;4268;52.506;13.462;2023-12-22T06:45:37;4.00;99.90
8463;DHT22;4268;52.506;13.462;2023-12-22T06:48:03;4.00;99.90
8463;DHT22;4268;52.506;13.462;2023-12-22T06:50:28;4.10;99.90
8463;DHT22;4268;52.506;13.462;2023-12-22T06:52:54;4.10;99.90
8463;DHT22;4268;52.506;13.462;2023-12-22T06:55:19;4.10;99.90
8463;DHT22;4268;52.506;13.462;2023-12-22T06:57:45;4.00;99.90
8463;DHT22;4268;52.506;13.462;2023-12-22T07:00:11;4.00;99.90
8463;DHT22;4268;52.506;13.462;2023-12-22T07:02:37;4.00;99.90
8463;DHT22;4268;52.506;13.462;2023-12-22T07:07:37;3.90;99.90
8463;DHT22;4268;52.506;13.462;2023-12-22T07:10:03;3.90;99.90
8463;DHT22;4268;52.506;13.462;2023-12-22T07:12:28;3.80;99.90
8463;DHT22;4268;52.506;13.462;2023-12-22T07:14:54;3.80;99.90
8463;DHT22;4268;52.506;13.462;2023-12-22T07:17:20;3.80;99.90
8463;DHT22;4268;52.506;13.462;2023-12-22T07:19:45;3.80;99.90
8463;DHT22;4268;52.506;13.462;2023-12-22T07:22:11;3.80;99.90
8463;DHT22;4268;52.506;13.462;2023-12-22T07:24:37;3.80;99.90
8463;DHT22;4268;52.506;13.462;2023-12-22T07:27:02;3.80;99.90
8463;DHT22;4268;52.506;13.462;2023-12-22T07:29:28;3.80;99.90
8463;DHT22;4268;52.506;13.462;2023-12-22T07:31:54;3.80;99.90
8463;DHT22;4268;52.506;13.462;2023-12-22T07:34:20;3.80;99.90
8463;DHT22;4268;52.506;13.462;2023-12-22T07:36:47;3.80;99.90
8463;DHT22;4268;52.506;13.462;2023-12-22T07:39:13;3.80;99.90
8463;DHT22;4268;52.506;13.462;2023-12-22T07:41:39;3.90;99.90
8463;DHT22;4268;52.506;13.462;2023-12-22T07:44:05;3.90;99.90
8463;DHT22;4268;52.506;13.462;2023-12-22T07:46:31;3.90;99.90
8463;DHT22;4268;52.506;13.462;2023-12-22T07:48:56;3.90;99.90
8463;DHT22;4268;52.506;13.462;2023-12-22T07:51:22;4.00;99.90
8463;DHT22;4268;52.506;13.462;2023-12-22T07:53:47;4.10;99.90
8463;DHT22;4268;52.506;13.462;2023-12-22T07:56:13;4.10;99.90
8463;DHT22;4268;52.506;13.462;2023-12-22T07:58:38;4.10;99.90
8463;DHT22;4268;52.506;13.462;2023-12-22T08:01:04;4.20;99.90
8463;DHT22;4268;52.506;13.462;2023-12-22T08:03:31;4.20;99.90
8463;DHT22;4268;52.506;13.462;2023-12-22T08:05:57;4.20;99.90
8463;DHT22;4268;52.506;13.462;2023-12-22T08:08:23;4.20;99.90
8463;DHT22;4268;52.506;13.462;2023-12-22T08:10:48;4.20;99.90
8463;DHT22;4268;52.506;13.462;2023-12-22T08:13:14;4.20;99.90
8463;DHT22;4268;52.506;13.462;2023-12-22T08:15:39;4.20;99.90
8463;DHT22;4268;52.506;13.462;2023-12-22T08:18:06;4.20;99.90
8463;DHT22;4268;52.506;13.462;2023-12-22T08:20:32;4.20;99.90
8463;DHT22;4268;52.506;13.462;2023-12-22T08:22:57;4.20;99.90
8463;DHT22;4268;52.506;13.462;2023-12-22T08:25:23;4.20;99.90
8463;DHT22;4268;52.506;13.462;2023-12-22T08:27:48;4.10;99.90
8463;DHT22;4268;52.506;13.462;2023-12-22T08:30:14;4.20;99.90
8463;DHT22;4268;52.506;13.462;2023-12-22T08:32:42;4.20;99.90
8463;DHT22;4268;52.506;13.462;2023-12-22T08:35:08;4.10;99.90
8463;DHT22;4268;52.506;13.462;2023-12-22T08:37:35;4.20;99.90
8463;DHT22;4268;52.506;13.462;2023-12-22T08:40:00;4.20;99.90
8463;DHT22;4268;52.506;13.462;2023-12-22T08:42:26;4.20;99.90
8463;DHT22;4268;52.506;13.462;2023-12-22T08:44:51;4.20;99.90
8463;DHT22;4268;52.506;13.462;2023-12-22T08:47:17;4.20;99.90
8463;DHT22;4268;52.506;13.462;2023-12-22T08:49:43;4.20;99.90
8463;DHT22;4268;52.506;13.462;2023-12-22T08:52:08;4.20;99.90
8463;DHT22;4268;52.506;13.462;2023-12-22T08:54:34;4.20;99.90
8463;DHT22;4268;52.506;13.462;2023-12-22T08:57:01;4.20;99.90
8463;DHT22;4268;52.506;13.462;2023-12-22T08:59:27;4.30;99.90
8463;DHT22;4268;52.506;13.462;2023-12-22T09:01:52;4.30;99.90
8463;DHT22;4268;52.506;13.462;2023-12-22T09:04:18;4.30;99.90
8463;DHT22;4268;52.506;13.462;2023-12-22T09:06:46;4.20;99.90
8463;DHT22;4268;52.506;13.462;2023-12-22T09:09:11;4.20;99.90
8463;DHT22;4268;52.506;13.462;2023-12-22T09:11:38;4.20;99.90
8463;DHT22;4268;52.506;13.462;2023-12-22T09:14:05;4.20;99.90
8463;DHT22;4268;52.506;13.462;2023-12-22T09:16:34;4.20;99.90
8463;DHT22;4268;52.506;13.462;2023-12-22T09:19:00;4.40;99.90
8463;DHT22;4268;52.506;13.462;2023-12-22T09:21:26;4.50;99.90
8463;DHT22;4268;52.506;13.462;2023-12-22T09:23:51;4.50;99.90
8463;DHT22;4268;52.506;13.462;2023-12-22T09:26:17;4.50;99.90
8463;DHT22;4268;52.506;13.462;2023-12-22T09:28:43;4.60;99.90
8463;DHT22;4268;52.506;13.462;2023-12-22T09:31:09;4.70;99.90
8463;DHT22;4268;52.506;13.462;2023-12-22T09:33:35;4.70;99.90
8463;DHT22;4268;52.506;13.462;2023-12-22T09:36:01;4.60;99.90
8463;DHT22;4268;52.506;13.462;2023-12-22T09:38:27;4.70;99.90
8463;DHT22;4268;52.506;13.462;2023-12-22T09:40:55;4.80;99.90
8463;DHT22;4268;52.506;13.462;2023-12-22T09:43:21;4.90;99.90
8463;DHT22;4268;52.506;13.462;2023-12-22T09:45:48;4.90;99.90
8463;DHT22;4268;52.506;13.462;2023-12-22T09:48:16;4.90;99.90
8463;DHT22;4268;52.506;13.462;2023-12-22T09:50:44;4.90;99.90
8463;DHT22;4268;52.506;13.462;2023-12-22T09:53:12;5.00;99.90
8463;DHT22;4268;52.506;13.462;2023-12-22T09:55:38;5.00;99.90
8463;DHT22;4268;52.506;13.462;2023-12-22T09:58:04;5.00;99.90
8463;DHT22;4268;52.506;13.462;2023-12-22T10:00:31;5.10;99.90
8463;DHT22;4268;52.506;13.462;2023-12-22T10:02:57;5.00;99.90
8463;DHT22;4268;52.506;13.462;2023-12-22T10:05:23;5.00;99.90
8463;DHT22;4268;52.506;13.462;2023-12-22T10:07:49;5.00;99.90
8463;DHT22;4268;52.506;13.462;2023-12-22T10:10:15;5.00;99.90
8463;DHT22;4268;52.506;13.462;2023-12-22T10:12:44;5.00;99.90
8463;DHT22;4268;52.506;13.462;2023-12-22T10:15:12;5.00;99.90
8463;DHT22;4268;52.506;13.462;2023-12-22T10:17:38;5.10;99.90
8463;DHT22;4268;52.506;13.462;2023-12-22T10:20:05;5.10;99.90
8463;DHT22;4268;52.506;13.462;2023-12-22T10:22:30;5.30;99.90
8463;DHT22;4268;52.506;13.462;2023-12-22T10:24:56;5.40;99.90
8463;DHT22;4268;52.506;13.462;2023-12-22T10:27:21;5.40;99.90
8463;DHT22;4268;52.506;13.462;2023-12-22T10:29:56;5.40;99.90
8463;DHT22;4268;52.506;13.462;2023-12-22T10:32:22;5.40;99.90
8463;DHT22;4268;52.506;13.462;2023-12-22T10:34:50;5.50;99.90
8463;DHT22;4268;52.506;13.462;2023-12-22T10:37:16;5.50;99.90
8463;DHT22;4268;52.506;13.462;2023-12-22T10:39:42;5.40;99.90
8463;DHT22;4268;52.506;13.462;2023-12-22T10:42:08;5.40;99.90
8463;DHT22;4268;52.506;13.462;2023-12-22T10:44:34;5.40;99.90
8463;DHT22;4268;52.506;13.462;2023-12-22T10:47:00;5.30;99.90
8463;DHT22;4268;52.506;13.462;2023-12-22T10:49:26;5.40;99.90
8463;DHT22;4268;52.506;13.462;2023-12-22T10:51:52;5.40;99.90
8463;DHT22;4268;52.506;13.462;2023-12-22T10:54:18;5.60;99.90
8463;DHT22;4268;52.506;13.462;2023-12-22T10:56:44;5.60;99.90
8463;DHT22;4268;52.506;13.462;2023-12-22T10:59:10;5.60;99.90
8463;DHT22;4268;52.506;13.462;2023-12-22T11:01:36;5.60;99.90
8463;DHT22;4268;52.506;13.462;2023-12-22T11:04:07;5.60;99.90
8463;DHT22;4268;52.506;13.462;2023-12-22T11:06:37;5.60;99.90
8463;DHT22;4268;52.506;13.462;2023-12-22T11:09:06;5.70;99.90
8463;DHT22;4268;52.506;13.462;2023-12-22T11:11:41;5.80;99.90
8463;DHT22;4268;52.506;13.462;2023-12-22T11:14:07;5.80;99.90
8463;DHT22;4268;52.506;13.462;2023-12-22T11:16:34;5.70;99.90
8463;DHT22;4268;52.506;13.462;2023-12-22T11:19:03;5.60;99.90
8463;DHT22;4268;52.506;13.462;2023-12-22T11:21:30;5.60;99.90
8463;DHT22;4268;52.506;13.462;2023-12-22T11:23:56;5.60;99.90
8463;DHT22;4268;52.506;13.462;2023-12-22T11:26:25;5.50;99.90
8463;DHT22;4268;52.506;13.462;2023-12-22T11:28:51;5.40;99.90
8463;DHT22;4268;52.506;13.462;2023-12-22T11:31:18;5.40;99.90
8463;DHT22;4268;52.506;13.462;2023-12-22T11:33:45;5.50;99.90
8463;DHT22;4268;52.506;13.462;2023-12-22T11:36:12;5.40;99.90
8463;DHT22;4268;52.506;13.462;2023-12-22T11:38:42;5.40;99.90
8463;DHT22;4268;52.506;13.462;2023-12-22T11:41:11;5.50;99.90
8463;DHT22;4268;52.506;13.462;2023-12-22T11:43:38;5.40;99.90
8463;DHT22;4268;52.506;13.462;2023-12-22T11:46:05;5.40;99.90
8463;DHT22;4268;52.506;13.462;2023-12-22T11:48:31;5.40;99.90
8463;DHT22;4268;52.506;13.462;2023-12-22T11:50:57;5.40;99.90
8463;DHT22;4268;52.506;13.462;2023-12-22T11:53:29;5.40;99.90
8463;DHT22;4268;52.506;13.462;2023-12-22T11:56:02;5.40;99.90
8463;DHT22;4268;52.506;13.462;2023-12-22T11:58:48;5.40;99.90
8463;DHT22;4268;52.506;13.462;2023-12-22T12:01:19;5.40;99.90
8463;DHT22;4268;52.506;13.462;2023-12-22T12:03:48;5.50;99.90
8463;DHT22;4268;52.506;13.462;2023-12-22T12:06:16;5.50;99.90
8463;DHT22;4268;52.506;13.462;2023-12-22T12:08:43;5.50;99.90
8463;DHT22;4268;52.506;13.462;2023-12-22T12:11:08;5.60;99.90
8463;DHT22;4268;52.506;13.462;2023-12-22T12:13:34;5.60;99.90
8463;DHT22;4268;52.506;13.462;2023-12-22T12:16:00;5.70;99.90
8463;DHT22;4268;52.506;13.462;2023-12-22T12:18:32;5.70;99.90
8463;DHT22;4268;52.506;13.462;2023-12-22T12:20:59;5.60;99.90
8463;DHT22;4268;52.506;13.462;2023-12-22T12:23:28;5.60;99.90
8463;DHT22;4268;52.506;13.462;2023-12-22T12:25:55;5.60;99.90
8463;DHT22;4268;52.506;13.462;2023-12-22T12:28:25;5.50;99.90
8463;DHT22;4268;52.506;13.462;2023-12-22T12:30:57;5.50;99.90
8463;DHT22;4268;52.506;13.462;2023-12-22T12:33:27;5.50;99.90
8463;DHT22;4268;52.506;13.462;2023-12-22T12:35:56;5.50;99.90
8463;DHT22;4268;52.506;13.462;2023-12-22T12:38:26;5.50;99.90
8463;DHT22;4268;52.506;13.462;2023-12-22T12:40:54;5.50;99.90
8463;DHT22;4268;52.506;13.462;2023-12-22T12:43:22;5.60;99.90
8463;DHT22;4268;52.506;13.462;2023-12-22T12:45:48;5.60;99.90
8463;DHT22;4268;52.506;13.462;2023-12-22T12:48:16;5.50;99.90
8463;DHT22;4268;52.506;13.462;2023-12-22T12:50:43;5.50;99.90
8463;DHT22;4268;52.506;13.462;2023-12-22T12:53:08;5.60;99.90
8463;DHT22;4268;52.506;13.462;2023-12-22T12:55:34;5.60;99.90
8463;DHT22;4268;52.506;13.462;2023-12-22T12:58:00;5.50;99.90
8463;DHT22;4268;52.506;13.462;2023-12-22T13:00:30;5.40;99.90
8463;DHT22;4268;52.506;13.462;2023-12-22T13:03:00;5.40;99.90
8463;DHT22;4268;52.506;13.462;2023-12-22T13:05:28;5.40;99.90
8463;DHT22;4268;52.506;13.462;2023-12-22T13:08:09;5.50;99.90
8463;DHT22;4268;52.506;13.462;2023-12-22T13:10:35;5.50;99.90
8463;DHT22;4268;52.506;13.462;2023-12-22T13:13:01;5.50;99.90
8463;DHT22;4268;52.506;13.462;2023-12-22T13:15:27;5.50;99.90
8463;DHT22;4268;52.506;13.462;2023-12-22T13:17:52;5.50;99.90
8463;DHT22;4268;52.506;13.462;2023-12-22T13:20:18;5.40;99.90
8463;DHT22;4268;52.506;13.462;2023-12-22T13:22:44;5.40;99.90
8463;DHT22;4268;52.506;13.462;2023-12-22T13:25:10;5.40;99.90
8463;DHT22;4268;52.506;13.462;2023-12-22T13:27:47;5.40;99.90
8463;DHT22;4268;52.506;13.462;2023-12-22T13:30:34;5.40;99.90
8463;DHT22;4268;52.506;13.462;2023-12-22T13:32:59;5.40;99.90
8463;DHT22;4268;52.506;13.462;2023-12-22T13:35:24;5.40;99.90
8463;DHT22;4268;52.506;13.462;2023-12-22T13:37:55;5.40;99.90
8463;DHT22;4268;52.506;13.462;2023-12-22T13:40:21;5.40;99.90
8463;DHT22;4268;52.506;13.462;2023-12-22T13:42:59;5.40;99.90
8463;DHT22;4268;52.506;13.462;2023-12-22T13:45:27;5.40;99.90
8463;DHT22;4268;52.506;13.462;2023-12-22T13:47:53;5.40;99.90
8463;DHT22;4268;52.506;13.462;2023-12-22T13:50:19;5.40;99.90
8463;DHT22;4268;52.506;13.462;2023-12-22T13:52:48;5.40;99.90
8463;DHT22;4268;52.506;13.462;2023-12-22T13:55:15;5.50;99.90
8463;DHT22;4268;52.506;13.462;2023-12-22T13:57:41;5.50;99.90
8463;DHT22;4268;52.506;13.462;2023-12-22T14:02:42;5.40;99.90
8463;DHT22;4268;52.506;13.462;2023-12-22T14:05:08;5.40;99.90
8463;DHT22;4268;52.506;13.462;2023-12-22T14:07:33;5.40;99.90
8463;DHT22;4268;52.506;13.462;2023-12-22T14:10:07;5.30;99.90
8463;DHT22;4268;52.506;13.462;2023-12-22T14:12:33;5.20;99.90
8463;DHT22;4268;52.506;13.462;2023-12-22T14:14:59;5.20;99.90
8463;DHT22;4268;52.506;13.462;2023-12-22T14:17:25;5.20;99.90
8463;DHT22;4268;52.506;13.462;2023-12-22T14:19:50;5.20;99.90
8463;DHT22;4268;52.506;13.462;2023-12-22T14:22:16;5.10;99.90
8463;DHT22;4268;52.506;13.462;2023-12-22T14:24:42;5.10;99.90
8463;DHT22;4268;52.506;13.462;2023-12-22T14:27:07;5.00;99.90
8463;DHT22;4268;52.506;13.462;2023-12-22T14:29:33;5.00;99.90
8463;DHT22;4268;52.506;13.462;2023-12-22T14:32:00;4.90;99.90
8463;DHT22;4268;52.506;13.462;2023-12-22T14:34:26;4.90;99.90
8463;DHT22;4268;52.506;13.462;2023-12-22T14:36:51;4.80;99.90
8463;DHT22;4268;52.506;13.462;2023-12-22T14:39:17;4.80;99.90
8463;DHT22;4268;52.506;13.462;2023-12-22T14:41:42;4.70;99.90
8463;DHT22;4268;52.506;13.462;2023-12-22T14:44:08;4.60;99.90
8463;DHT22;4268;52.506;13.462;2023-12-22T14:46:38;4.60;99.90
8463;DHT22;4268;52.506;13.462;2023-12-22T14:49:04;4.30;99.90
8463;DHT22;4268;52.506;13.462;2023-12-22T14:51:38;4.60;99.90
8463;DHT22;4268;52.506;13.462;2023-12-22T14:54:07;4.50;99.90
8463;DHT22;4268;52.506;13.462;2023-12-22T14:56:34;4.50;99.90
8463;DHT22;4268;52.506;13.462;2023-12-22T14:58:59;4.40;99.90
8463;DHT22;4268;52.506;13.462;2023-12-22T15:01:25;4.30;99.90
8463;DHT22;4268;52.506;13.462;2023-12-22T15:03:51;4.30;99.90
8463;DHT22;4268;52.506;13.462;2023-12-22T15:06:16;4.30;99.90
8463;DHT22;4268;52.506;13.462;2023-12-22T15:08:42;4.20;99.90
8463;DHT22;4268;52.506;13.462;2023-12-22T15:11:07;4.20;99.90
8463;DHT22;4268;52.506;13.462;2023-12-22T15:13:34;4.20;99.90
8463;DHT22;4268;52.506;13.462;2023-12-22T15:16:07;4.20;99.90
8463;DHT22;4268;52.506;13.462;2023-12-22T15:18:34;4.20;99.90
8463;DHT22;4268;52.506;13.462;2023-12-22T15:21:00;4.20;99.90
8463;DHT22;4268;52.506;13.462;2023-12-22T15:23:25;4.30;99.90
8463;DHT22;4268;52.506;13.462;2023-12-22T15:25:51;4.30;99.90
8463;DHT22;4268;52.506;13.462;2023-12-22T15:28:17;4.20;99.90
8463;DHT22;4268;52.506;13.462;2023-12-22T15:30:42;4.30;99.90
8463;DHT22;4268;52.506;13.462;2023-12-22T15:33:09;4.30;99.90
8463;DHT22;4268;52.506;13.462;2023-12-22T15:35:34;4.30;99.90
8463;DHT22;4268;52.506;13.462;2023-12-22T15:38:00;4.30;99.90
8463;DHT22;4268;52.506;13.462;2023-12-22T15:40:25;4.30;99.90
8463;DHT22;4268;52.506;13.462;2023-12-22T15:42:51;4.30;99.90
8463;DHT22;4268;52.506;13.462;2023-12-22T15:45:16;4.30;99.90
8463;DHT22;4268;52.506;13.462;2023-12-22T15:47:42;4.30;99.90
8463;DHT22;4268;52.506;13.462;2023-12-22T15:50:08;4.30;99.90
8463;DHT22;4268;52.506;13.462;2023-12-22T15:52:37;4.30;99.90
8463;DHT22;4268;52.506;13.462;2023-12-22T15:55:03;4.40;99.90
8463;DHT22;4268;52.506;13.462;2023-12-22T15:57:28;4.40;99.90
8463;DHT22;4268;52.506;13.462;2023-12-22T15:59:54;4.30;99.90
8463;DHT22;4268;52.506;13.462;2023-12-22T16:02:20;4.30;99.90
8463;DHT22;4268;52.506;13.462;2023-12-22T16:04:45;4.30;99.90